Archival Weather

Salzburg

Salzburg, Austria (LOWS)

Report from: Thursday, September 21, 2023 2:50 PM CEST
Current time: Friday, July 19, 2024 4:56 AM CEST

Current weather – Weather history – Daily summaries
Weather forecast

Temperature27.0°C (80.6°F)
Heat index27.6°C (81.6°F)
Dew point15.0°C (59.0°F)
Winds 6 kts (3.1 m/s, 6.9 mph) Vrb
Winds variableWinds variable from North (359.999999°) to East-Southeast (110°)
Visibility6.2 mi. (10 km)
Clouds Few clouds 6,000 ft. (1,829 m)
Altimeter29.62 in.Hg (1003 mB)
Relative humidity48 %
Density altitude1,965 ft. (599 m)
Remarks No significant changes expected in the next two hours
Flight conditions Visual Meteorological Conditions
Raw dataLOWS 211250Z 06006KT 360V110 9999 FEW060 27/15 Q1003 NOSIG
An error has occurred. This application may no longer respond until reloaded. Reload 🗙